sensor_id;sensor_type;location;lat;lon;timestamp;P1;durP1;ratioP1;P2;durP2;ratioP2
29352;SDS011;16344;50.364;8.944;2023-04-24T00:01:11;7.53;;;1.30;;
29352;SDS011;16344;50.364;8.944;2023-04-24T00:03:38;7.80;;;1.15;;
29352;SDS011;16344;50.364;8.944;2023-04-24T00:06:03;5.13;;;1.30;;
29352;SDS011;16344;50.364;8.944;2023-04-24T00:08:31;18.05;;;1.30;;
29352;SDS011;16344;50.364;8.944;2023-04-24T00:10:57;3.90;;;1.50;;
29352;SDS011;16344;50.364;8.944;2023-04-24T00:13:22;8.18;;;1.40;;
29352;SDS011;16344;50.364;8.944;2023-04-24T00:15:48;4.32;;;1.05;;
29352;SDS011;16344;50.364;8.944;2023-04-24T00:18:14;1.55;;;1.10;;
29352;SDS011;16344;50.364;8.944;2023-04-24T00:20:39;4.50;;;1.33;;
29352;SDS011;16344;50.364;8.944;2023-04-24T00:23:05;7.85;;;1.17;;
29352;SDS011;16344;50.364;8.944;2023-04-24T00:25:30;6.97;;;1.67;;
29352;SDS011;16344;50.364;8.944;2023-04-24T00:27:56;5.03;;;1.52;;
29352;SDS011;16344;50.364;8.944;2023-04-24T00:30:21;4.57;;;1.08;;
29352;SDS011;16344;50.364;8.944;2023-04-24T00:32:47;7.72;;;1.50;;
29352;SDS011;16344;50.364;8.944;2023-04-24T00:35:12;4.90;;;1.40;;
29352;SDS011;16344;50.364;8.944;2023-04-24T00:37:39;3.97;;;1.50;;
29352;SDS011;16344;50.364;8.944;2023-04-24T00:40:05;4.40;;;1.45;;
29352;SDS011;16344;50.364;8.944;2023-04-24T00:42:31;2.90;;;1.23;;
29352;SDS011;16344;50.364;8.944;2023-04-24T00:44:58;3.78;;;1.08;;
29352;SDS011;16344;50.364;8.944;2023-04-24T00:47:24;6.88;;;1.33;;
29352;SDS011;16344;50.364;8.944;2023-04-24T00:49:50;4.10;;;1.38;;
29352;SDS011;16344;50.364;8.944;2023-04-24T00:52:16;6.35;;;1.60;;
29352;SDS011;16344;50.364;8.944;2023-04-24T00:54:43;9.63;;;1.95;;
29352;SDS011;16344;50.364;8.944;2023-04-24T00:57:10;2.15;;;1.10;;
29352;SDS011;16344;50.364;8.944;2023-04-24T00:59:36;3.83;;;1.27;;
29352;SDS011;16344;50.364;8.944;2023-04-24T01:02:02;8.40;;;1.20;;
29352;SDS011;16344;50.364;8.944;2023-04-24T01:04:28;7.05;;;1.35;;
29352;SDS011;16344;50.364;8.944;2023-04-24T01:06:54;1.92;;;1.00;;
29352;SDS011;16344;50.364;8.944;2023-04-24T01:09:21;2.08;;;1.15;;
29352;SDS011;16344;50.364;8.944;2023-04-24T01:11:48;5.07;;;1.25;;
29352;SDS011;16344;50.364;8.944;2023-04-24T01:14:15;3.25;;;1.30;;
29352;SDS011;16344;50.364;8.944;2023-04-24T01:16:40;5.75;;;1.10;;
29352;SDS011;16344;50.364;8.944;2023-04-24T01:19:06;3.28;;;1.38;;
29352;SDS011;16344;50.364;8.944;2023-04-24T01:21:34;5.28;;;1.08;;
29352;SDS011;16344;50.364;8.944;2023-04-24T01:24:02;1.50;;;1.10;;
29352;SDS011;16344;50.364;8.944;2023-04-24T01:26:28;5.63;;;1.17;;
29352;SDS011;16344;50.364;8.944;2023-04-24T01:28:54;5.28;;;1.30;;
29352;SDS011;16344;50.364;8.944;2023-04-24T01:31:20;5.55;;;1.95;;
29352;SDS011;16344;50.364;8.944;2023-04-24T01:33:46;8.32;;;1.38;;
29352;SDS011;16344;50.364;8.944;2023-04-24T01:36:12;4.80;;;1.48;;
29352;SDS011;16344;50.364;8.944;2023-04-24T01:38:38;9.38;;;1.30;;
29352;SDS011;16344;50.364;8.944;2023-04-24T01:41:04;13.13;;;1.45;;
29352;SDS011;16344;50.364;8.944;2023-04-24T01:43:30;6.32;;;1.90;;
29352;SDS011;16344;50.364;8.944;2023-04-24T01:45:56;6.07;;;1.48;;
29352;SDS011;16344;50.364;8.944;2023-04-24T01:48:22;3.28;;;1.20;;
29352;SDS011;16344;50.364;8.944;2023-04-24T01:50:48;9.38;;;1.30;;
29352;SDS011;16344;50.364;8.944;2023-04-24T01:53:13;9.27;;;1.42;;
29352;SDS011;16344;50.364;8.944;2023-04-24T01:55:40;11.88;;;1.27;;
29352;SDS011;16344;50.364;8.944;2023-04-24T01:58:06;5.53;;;1.20;;
29352;SDS011;16344;50.364;8.944;2023-04-24T02:00:31;2.63;;;1.25;;
29352;SDS011;16344;50.364;8.944;2023-04-24T02:02:57;2.00;;;1.08;;
29352;SDS011;16344;50.364;8.944;2023-04-24T02:05:22;5.10;;;1.50;;
29352;SDS011;16344;50.364;8.944;2023-04-24T02:07:48;6.50;;;1.98;;
29352;SDS011;16344;50.364;8.944;2023-04-24T02:10:13;5.45;;;1.63;;
29352;SDS011;16344;50.364;8.944;2023-04-24T02:12:39;5.10;;;1.70;;
29352;SDS011;16344;50.364;8.944;2023-04-24T02:15:05;4.88;;;1.52;;
29352;SDS011;16344;50.364;8.944;2023-04-24T02:17:31;7.25;;;1.48;;
29352;SDS011;16344;50.364;8.944;2023-04-24T02:19:56;5.63;;;1.52;;
29352;SDS011;16344;50.364;8.944;2023-04-24T02:22:22;2.67;;;1.50;;
29352;SDS011;16344;50.364;8.944;2023-04-24T02:24:47;3.65;;;1.15;;
29352;SDS011;16344;50.364;8.944;2023-04-24T02:27:13;2.53;;;1.08;;
29352;SDS011;16344;50.364;8.944;2023-04-24T02:29:39;20.35;;;1.65;;
29352;SDS011;16344;50.364;8.944;2023-04-24T02:32:05;4.80;;;1.85;;
29352;SDS011;16344;50.364;8.944;2023-04-24T02:34:30;8.25;;;1.40;;
29352;SDS011;16344;50.364;8.944;2023-04-24T02:36:56;6.20;;;1.25;;
29352;SDS011;16344;50.364;8.944;2023-04-24T02:39:21;6.38;;;1.00;;
29352;SDS011;16344;50.364;8.944;2023-04-24T02:41:47;13.38;;;1.60;;
29352;SDS011;16344;50.364;8.944;2023-04-24T02:44:12;3.20;;;0.88;;
29352;SDS011;16344;50.364;8.944;2023-04-24T02:46:38;7.22;;;1.60;;
29352;SDS011;16344;50.364;8.944;2023-04-24T02:49:06;6.43;;;1.45;;
29352;SDS011;16344;50.364;8.944;2023-04-24T02:51:31;7.57;;;1.40;;
29352;SDS011;16344;50.364;8.944;2023-04-24T02:53:57;7.97;;;1.15;;
29352;SDS011;16344;50.364;8.944;2023-04-24T02:56:22;6.28;;;1.25;;
29352;SDS011;16344;50.364;8.944;2023-04-24T02:58:48;8.98;;;1.48;;
29352;SDS011;16344;50.364;8.944;2023-04-24T03:01:13;5.78;;;1.20;;
29352;SDS011;16344;50.364;8.944;2023-04-24T03:03:39;4.43;;;1.25;;
29352;SDS011;16344;50.364;8.944;2023-04-24T03:06:05;2.42;;;1.10;;
29352;SDS011;16344;50.364;8.944;2023-04-24T03:08:32;5.30;;;1.50;;
29352;SDS011;16344;50.364;8.944;2023-04-24T03:10:58;6.35;;;1.25;;
29352;SDS011;16344;50.364;8.944;2023-04-24T03:13:23;6.45;;;1.60;;
29352;SDS011;16344;50.364;8.944;2023-04-24T03:15:49;7.13;;;1.10;;
29352;SDS011;16344;50.364;8.944;2023-04-24T03:18:15;4.32;;;1.60;;
29352;SDS011;16344;50.364;8.944;2023-04-24T03:20:40;3.40;;;1.00;;
29352;SDS011;16344;50.364;8.944;2023-04-24T03:23:06;3.72;;;1.42;;
29352;SDS011;16344;50.364;8.944;2023-04-24T03:25:31;1.52;;;1.13;;
29352;SDS011;16344;50.364;8.944;2023-04-24T03:27:57;5.45;;;1.17;;
29352;SDS011;16344;50.364;8.944;2023-04-24T03:30:22;2.15;;;1.25;;
29352;SDS011;16344;50.364;8.944;2023-04-24T03:32:48;6.25;;;1.75;;
29352;SDS011;16344;50.364;8.944;2023-04-24T03:35:13;7.13;;;1.52;;
29352;SDS011;16344;50.364;8.944;2023-04-24T03:37:39;9.10;;;1.52;;
29352;SDS011;16344;50.364;8.944;2023-04-24T03:40:04;7.47;;;1.25;;
29352;SDS011;16344;50.364;8.944;2023-04-24T03:42:31;2.97;;;1.45;;
29352;SDS011;16344;50.364;8.944;2023-04-24T03:44:57;9.45;;;1.52;;
29352;SDS011;16344;50.364;8.944;2023-04-24T03:47:22;7.28;;;1.58;;
29352;SDS011;16344;50.364;8.944;2023-04-24T03:49:48;4.85;;;1.35;;
29352;SDS011;16344;50.364;8.944;2023-04-24T03:52:14;5.32;;;1.17;;
29352;SDS011;16344;50.364;8.944;2023-04-24T03:54:39;2.78;;;1.77;;
29352;SDS011;16344;50.364;8.944;2023-04-24T03:57:05;1.80;;;1.05;;
29352;SDS011;16344;50.364;8.944;2023-04-24T03:59:30;9.23;;;1.58;;
29352;SDS011;16344;50.364;8.944;2023-04-24T04:01:56;8.45;;;1.92;;
29352;SDS011;16344;50.364;8.944;2023-04-24T04:04:21;2.25;;;1.50;;
29352;SDS011;16344;50.364;8.944;2023-04-24T04:06:47;3.72;;;1.45;;
29352;SDS011;16344;50.364;8.944;2023-04-24T04:09:13;7.95;;;1.63;;
29352;SDS011;16344;50.364;8.944;2023-04-24T04:11:38;3.75;;;1.55;;
29352;SDS011;16344;50.364;8.944;2023-04-24T04:14:04;5.47;;;1.33;;
29352;SDS011;16344;50.364;8.944;2023-04-24T04:16:30;7.30;;;1.50;;
29352;SDS011;16344;50.364;8.944;2023-04-24T04:18:55;2.42;;;1.10;;
29352;SDS011;16344;50.364;8.944;2023-04-24T04:21:21;2.78;;;1.30;;
29352;SDS011;16344;50.364;8.944;2023-04-24T04:23:47;4.82;;;1.67;;
29352;SDS011;16344;50.364;8.944;2023-04-24T04:26:13;6.95;;;1.67;;
29352;SDS011;16344;50.364;8.944;2023-04-24T04:28:38;5.22;;;1.45;;
29352;SDS011;16344;50.364;8.944;2023-04-24T04:31:04;4.78;;;1.60;;
29352;SDS011;16344;50.364;8.944;2023-04-24T04:33:30;5.13;;;1.70;;
29352;SDS011;16344;50.364;8.944;2023-04-24T04:35:56;5.28;;;1.80;;
29352;SDS011;16344;50.364;8.944;2023-04-24T04:38:23;2.63;;;1.42;;
29352;SDS011;16344;50.364;8.944;2023-04-24T04:40:49;9.82;;;1.70;;
29352;SDS011;16344;50.364;8.944;2023-04-24T04:43:15;10.98;;;1.73;;
29352;SDS011;16344;50.364;8.944;2023-04-24T04:45:41;2.58;;;1.65;;
29352;SDS011;16344;50.364;8.944;2023-04-24T04:48:08;12.88;;;2.05;;
29352;SDS011;16344;50.364;8.944;2023-04-24T04:50:34;7.03;;;2.03;;
29352;SDS011;16344;50.364;8.944;2023-04-24T04:53:00;10.35;;;1.67;;
29352;SDS011;16344;50.364;8.944;2023-04-24T04:55:25;7.68;;;1.75;;
29352;SDS011;16344;50.364;8.944;2023-04-24T04:57:51;4.03;;;1.50;;
29352;SDS011;16344;50.364;8.944;2023-04-24T05:00:17;7.43;;;2.97;;
29352;SDS011;16344;50.364;8.944;2023-04-24T05:02:43;2.53;;;1.23;;
29352;SDS011;16344;50.364;8.944;2023-04-24T05:05:08;3.17;;;1.52;;
29352;SDS011;16344;50.364;8.944;2023-04-24T05:07:34;6.05;;;1.30;;
29352;SDS011;16344;50.364;8.944;2023-04-24T05:10:00;2.45;;;1.30;;
29352;SDS011;16344;50.364;8.944;2023-04-24T05:12:25;3.63;;;1.35;;
29352;SDS011;16344;50.364;8.944;2023-04-24T05:14:51;2.47;;;1.27;;
29352;SDS011;16344;50.364;8.944;2023-04-24T05:17:17;7.85;;;1.52;;
29352;SDS011;16344;50.364;8.944;2023-04-24T05:19:43;3.28;;;1.20;;
29352;SDS011;16344;50.364;8.944;2023-04-24T05:22:08;5.88;;;1.27;;
29352;SDS011;16344;50.364;8.944;2023-04-24T05:24:36;2.63;;;1.10;;
29352;SDS011;16344;50.364;8.944;2023-04-24T05:27:02;2.45;;;0.68;;
29352;SDS011;16344;50.364;8.944;2023-04-24T05:29:29;1.13;;;1.00;;
29352;SDS011;16344;50.364;8.944;2023-04-24T05:31:59;5.68;;;1.20;;
29352;SDS011;16344;50.364;8.944;2023-04-24T05:34:25;2.15;;;0.95;;
29352;SDS011;16344;50.364;8.944;2023-04-24T05:36:52;7.13;;;1.20;;
29352;SDS011;16344;50.364;8.944;2023-04-24T05:39:18;4.38;;;1.10;;
29352;SDS011;16344;50.364;8.944;2023-04-24T05:41:44;2.63;;;0.70;;
29352;SDS011;16344;50.364;8.944;2023-04-24T05:44:10;2.25;;;0.80;;
29352;SDS011;16344;50.364;8.944;2023-04-24T05:46:35;4.78;;;0.80;;
29352;SDS011;16344;50.364;8.944;2023-04-24T05:49:01;4.47;;;0.88;;
29352;SDS011;16344;50.364;8.944;2023-04-24T05:51:27;4.38;;;0.50;;
29352;SDS011;16344;50.364;8.944;2023-04-24T05:53:53;1.63;;;0.60;;
29352;SDS011;16344;50.364;8.944;2023-04-24T05:56:19;2.40;;;0.85;;
29352;SDS011;16344;50.364;8.944;2023-04-24T05:58:45;4.07;;;1.23;;
29352;SDS011;16344;50.364;8.944;2023-04-24T06:01:11;4.68;;;1.15;;
29352;SDS011;16344;50.364;8.944;2023-04-24T06:03:38;1.35;;;0.70;;
29352;SDS011;16344;50.364;8.944;2023-04-24T06:06:05;3.83;;;0.90;;
29352;SDS011;16344;50.364;8.944;2023-04-24T06:08:31;3.42;;;0.95;;
29352;SDS011;16344;50.364;8.944;2023-04-24T06:10:56;2.92;;;0.77;;
29352;SDS011;16344;50.364;8.944;2023-04-24T06:13:22;3.55;;;0.80;;
29352;SDS011;16344;50.364;8.944;2023-04-24T06:15:47;1.95;;;0.90;;
29352;SDS011;16344;50.364;8.944;2023-04-24T06:18:13;5.68;;;0.90;;
29352;SDS011;16344;50.364;8.944;2023-04-24T06:20:38;4.38;;;1.30;;
29352;SDS011;16344;50.364;8.944;2023-04-24T06:23:04;2.35;;;1.30;;
29352;SDS011;16344;50.364;8.944;2023-04-24T06:25:30;1.52;;;0.80;;
29352;SDS011;16344;50.364;8.944;2023-04-24T06:27:56;1.70;;;0.90;;
29352;SDS011;16344;50.364;8.944;2023-04-24T06:30:22;3.47;;;0.93;;
29352;SDS011;16344;50.364;8.944;2023-04-24T06:32:48;3.85;;;0.93;;
29352;SDS011;16344;50.364;8.944;2023-04-24T06:35:13;7.95;;;1.70;;
29352;SDS011;16344;50.364;8.944;2023-04-24T06:37:39;2.97;;;1.40;;
29352;SDS011;16344;50.364;8.944;2023-04-24T06:40:06;1.80;;;1.25;;
29352;SDS011;16344;50.364;8.944;2023-04-24T06:42:32;2.45;;;1.55;;
29352;SDS011;16344;50.364;8.944;2023-04-24T06:44:57;5.95;;;1.55;;
29352;SDS011;16344;50.364;8.944;2023-04-24T06:47:23;3.47;;;1.48;;
29352;SDS011;16344;50.364;8.944;2023-04-24T06:49:49;4.20;;;1.85;;
29352;SDS011;16344;50.364;8.944;2023-04-24T06:52:16;2.85;;;1.40;;
29352;SDS011;16344;50.364;8.944;2023-04-24T06:54:41;7.28;;;1.80;;
29352;SDS011;16344;50.364;8.944;2023-04-24T06:57:07;5.63;;;1.98;;
29352;SDS011;16344;50.364;8.944;2023-04-24T06:59:33;2.78;;;1.60;;
29352;SDS011;16344;50.364;8.944;2023-04-24T07:01:59;7.75;;;1.92;;
29352;SDS011;16344;50.364;8.944;2023-04-24T07:04:25;2.58;;;1.52;;
29352;SDS011;16344;50.364;8.944;2023-04-24T07:06:50;3.20;;;1.45;;
29352;SDS011;16344;50.364;8.944;2023-04-24T07:09:16;7.82;;;2.80;;
29352;SDS011;16344;50.364;8.944;2023-04-24T07:11:43;7.18;;;2.67;;
29352;SDS011;16344;50.364;8.944;2023-04-24T07:14:09;6.18;;;2.63;;
29352;SDS011;16344;50.364;8.944;2023-04-24T07:16:35;6.40;;;2.20;;
29352;SDS011;16344;50.364;8.944;2023-04-24T07:19:00;6.13;;;2.10;;
29352;SDS011;16344;50.364;8.944;2023-04-24T07:21:26;4.85;;;2.20;;
29352;SDS011;16344;50.364;8.944;2023-04-24T07:23:52;5.20;;;2.78;;
29352;SDS011;16344;50.364;8.944;2023-04-24T07:26:17;4.88;;;2.40;;
29352;SDS011;16344;50.364;8.944;2023-04-24T07:28:43;5.35;;;2.72;;
29352;SDS011;16344;50.364;8.944;2023-04-24T07:31:09;7.05;;;2.75;;
29352;SDS011;16344;50.364;8.944;2023-04-24T07:33:36;6.47;;;2.92;;
29352;SDS011;16344;50.364;8.944;2023-04-24T07:36:01;8.60;;;3.33;;
29352;SDS011;16344;50.364;8.944;2023-04-24T07:38:29;4.68;;;2.60;;
29352;SDS011;16344;50.364;8.944;2023-04-24T07:40:54;8.70;;;2.63;;
29352;SDS011;16344;50.364;8.944;2023-04-24T07:43:20;7.55;;;2.53;;
29352;SDS011;16344;50.364;8.944;2023-04-24T07:45:46;3.28;;;2.42;;
29352;SDS011;16344;50.364;8.944;2023-04-24T07:48:12;6.20;;;2.97;;
29352;SDS011;16344;50.364;8.944;2023-04-24T07:50:41;5.78;;;2.55;;
29352;SDS011;16344;50.364;8.944;2023-04-24T07:53:07;6.82;;;2.85;;
29352;SDS011;16344;50.364;8.944;2023-04-24T07:55:32;16.17;;;2.75;;
29352;SDS011;16344;50.364;8.944;2023-04-24T07:57:58;4.47;;;2.45;;
29352;SDS011;16344;50.364;8.944;2023-04-24T08:00:23;5.95;;;2.63;;
29352;SDS011;16344;50.364;8.944;2023-04-24T08:02:49;12.00;;;2.42;;
29352;SDS011;16344;50.364;8.944;2023-04-24T08:05:14;3.28;;;2.40;;
29352;SDS011;16344;50.364;8.944;2023-04-24T08:07:40;8.07;;;2.33;;
29352;SDS011;16344;50.364;8.944;2023-04-24T08:10:07;7.60;;;1.75;;
29352;SDS011;16344;50.364;8.944;2023-04-24T08:12:35;7.35;;;1.95;;
29352;SDS011;16344;50.364;8.944;2023-04-24T08:15:02;2.47;;;1.70;;
29352;SDS011;16344;50.364;8.944;2023-04-24T08:17:27;16.48;;;2.10;;
29352;SDS011;16344;50.364;8.944;2023-04-24T08:19:53;2.40;;;1.77;;
29352;SDS011;16344;50.364;8.944;2023-04-24T08:22:26;2.13;;;1.65;;
29352;SDS011;16344;50.364;8.944;2023-04-24T08:24:54;4.15;;;1.75;;
29352;SDS011;16344;50.364;8.944;2023-04-24T08:27:21;5.75;;;1.83;;
29352;SDS011;16344;50.364;8.944;2023-04-24T08:29:46;5.93;;;1.48;;
29352;SDS011;16344;50.364;8.944;2023-04-24T08:32:12;4.00;;;1.67;;
29352;SDS011;16344;50.364;8.944;2023-04-24T08:34:37;6.05;;;2.03;;
29352;SDS011;16344;50.364;8.944;2023-04-24T08:37:03;8.57;;;2.00;;
29352;SDS011;16344;50.364;8.944;2023-04-24T08:39:28;7.55;;;2.28;;
29352;SDS011;16344;50.364;8.944;2023-04-24T08:41:54;3.88;;;1.90;;
29352;SDS011;16344;50.364;8.944;2023-04-24T08:44:20;6.28;;;1.50;;
29352;SDS011;16344;50.364;8.944;2023-04-24T08:46:46;3.10;;;1.83;;
29352;SDS011;16344;50.364;8.944;2023-04-24T08:49:13;4.60;;;2.00;;
29352;SDS011;16344;50.364;8.944;2023-04-24T08:51:41;5.22;;;2.20;;
29352;SDS011;16344;50.364;8.944;2023-04-24T08:54:07;6.65;;;2.30;;
29352;SDS011;16344;50.364;8.944;2023-04-24T08:56:33;5.88;;;2.13;;
29352;SDS011;16344;50.364;8.944;2023-04-24T08:59:02;4.85;;;2.10;;
29352;SDS011;16344;50.364;8.944;2023-04-24T09:01:29;6.78;;;1.80;;
29352;SDS011;16344;50.364;8.944;2023-04-24T09:03:58;8.02;;;2.40;;
29352;SDS011;16344;50.364;8.944;2023-04-24T09:06:27;1.63;;;1.52;;
29352;SDS011;16344;50.364;8.944;2023-04-24T09:08:53;9.18;;;1.95;;
29352;SDS011;16344;50.364;8.944;2023-04-24T09:11:20;6.20;;;2.08;;
29352;SDS011;16344;50.364;8.944;2023-04-24T09:13:49;4.32;;;2.00;;
29352;SDS011;16344;50.364;8.944;2023-04-24T09:16:15;2.42;;;1.80;;
29352;SDS011;16344;50.364;8.944;2023-04-24T09:18:41;2.55;;;1.75;;
29352;SDS011;16344;50.364;8.944;2023-04-24T09:21:07;3.58;;;2.00;;
29352;SDS011;16344;50.364;8.944;2023-04-24T09:23:36;13.57;;;2.22;;
29352;SDS011;16344;50.364;8.944;2023-04-24T09:26:10;3.90;;;2.00;;
29352;SDS011;16344;50.364;8.944;2023-04-24T09:29:00;4.50;;;2.25;;
29352;SDS011;16344;50.364;8.944;2023-04-24T09:31:28;2.17;;;1.90;;
29352;SDS011;16344;50.364;8.944;2023-04-24T09:36:26;3.70;;;2.30;;
29352;SDS011;16344;50.364;8.944;2023-04-24T09:38:53;5.05;;;2.00;;
29352;SDS011;16344;50.364;8.944;2023-04-24T09:41:22;4.07;;;1.75;;
29352;SDS011;16344;50.364;8.944;2023-04-24T09:43:48;3.40;;;1.80;;
29352;SDS011;16344;50.364;8.944;2023-04-24T09:46:13;7.55;;;2.88;;
29352;SDS011;16344;50.364;8.944;2023-04-24T09:48:39;3.70;;;1.77;;
29352;SDS011;16344;50.364;8.944;2023-04-24T09:51:05;8.20;;;1.88;;
29352;SDS011;16344;50.364;8.944;2023-04-24T09:53:32;8.23;;;2.45;;
29352;SDS011;16344;50.364;8.944;2023-04-24T09:56:07;10.07;;;2.10;;
29352;SDS011;16344;50.364;8.944;2023-04-24T09:58:35;4.85;;;2.10;;
29352;SDS011;16344;50.364;8.944;2023-04-24T10:01:01;3.97;;;2.25;;
29352;SDS011;16344;50.364;8.944;2023-04-24T10:03:29;4.70;;;2.40;;
29352;SDS011;16344;50.364;8.944;2023-04-24T10:05:59;5.18;;;2.40;;
29352;SDS011;16344;50.364;8.944;2023-04-24T10:08:25;5.95;;;2.13;;
29352;SDS011;16344;50.364;8.944;2023-04-24T10:10:51;3.63;;;2.33;;
29352;SDS011;16344;50.364;8.944;2023-04-24T10:13:17;7.15;;;1.80;;
29352;SDS011;16344;50.364;8.944;2023-04-24T10:15:43;6.63;;;2.03;;
29352;SDS011;16344;50.364;8.944;2023-04-24T10:18:09;2.97;;;1.98;;
29352;SDS011;16344;50.364;8.944;2023-04-24T10:20:36;7.70;;;1.83;;
29352;SDS011;16344;50.364;8.944;2023-04-24T10:23:03;7.00;;;2.35;;
29352;SDS011;16344;50.364;8.944;2023-04-24T10:25:30;4.88;;;1.80;;
29352;SDS011;16344;50.364;8.944;2023-04-24T10:27:58;7.18;;;2.58;;
29352;SDS011;16344;50.364;8.944;2023-04-24T10:30:25;4.28;;;2.17;;
29352;SDS011;16344;50.364;8.944;2023-04-24T10:32:52;2.63;;;1.50;;
29352;SDS011;16344;50.364;8.944;2023-04-24T10:35:19;4.55;;;1.83;;
29352;SDS011;16344;50.364;8.944;2023-04-24T10:37:50;3.83;;;1.70;;
29352;SDS011;16344;50.364;8.944;2023-04-24T10:40:25;7.57;;;1.73;;
29352;SDS011;16344;50.364;8.944;2023-04-24T10:42:52;7.67;;;2.43;;
29352;SDS011;16344;50.364;8.944;2023-04-24T10:45:21;8.35;;;1.90;;
29352;SDS011;16344;50.364;8.944;2023-04-24T10:50:28;2.90;;;1.63;;
29352;SDS011;16344;50.364;8.944;2023-04-24T10:53:07;2.85;;;1.70;;
29352;SDS011;16344;50.364;8.944;2023-04-24T10:55:47;3.10;;;1.70;;
29352;SDS011;16344;50.364;8.944;2023-04-24T10:58:21;6.72;;;1.98;;
29352;SDS011;16344;50.364;8.944;2023-04-24T11:00:58;1.90;;;1.38;;
29352;SDS011;16344;50.364;8.944;2023-04-24T11:03:31;3.45;;;1.88;;
29352;SDS011;16344;50.364;8.944;2023-04-24T11:06:05;2.63;;;1.42;;
29352;SDS011;16344;50.364;8.944;2023-04-24T11:11:12;3.83;;;1.63;;
29352;SDS011;16344;50.364;8.944;2023-04-24T11:19:04;9.07;;;1.83;;
29352;SDS011;16344;50.364;8.944;2023-04-24T11:21:32;6.30;;;1.13;;
29352;SDS011;16344;50.364;8.944;2023-04-24T11:27:12;5.22;;;1.30;;
29352;SDS011;16344;50.364;8.944;2023-04-24T11:34:50;3.65;;;2.03;;
29352;SDS011;16344;50.364;8.944;2023-04-24T11:37:17;5.60;;;1.50;;
29352;SDS011;16344;50.364;8.944;2023-04-24T11:39:42;0.80;;;0.50;;
29352;SDS011;16344;50.364;8.944;2023-04-24T11:42:08;2.85;;;0.82;;
29352;SDS011;16344;50.364;8.944;2023-04-24T11:44:34;1.05;;;0.52;;
29352;SDS011;16344;50.364;8.944;2023-04-24T11:47:03;6.47;;;0.80;;
29352;SDS011;16344;50.364;8.944;2023-04-24T11:49:32;2.10;;;0.90;;
29352;SDS011;16344;50.364;8.944;2023-04-24T11:51:59;5.25;;;0.73;;
29352;SDS011;16344;50.364;8.944;2023-04-24T11:54:26;4.82;;;0.85;;
29352;SDS011;16344;50.364;8.944;2023-04-24T11:56:51;0.98;;;0.70;;
29352;SDS011;16344;50.364;8.944;2023-04-24T11:59:17;1.42;;;0.75;;
29352;SDS011;16344;50.364;8.944;2023-04-24T12:01:46;7.70;;;1.00;;
29352;SDS011;16344;50.364;8.944;2023-04-24T12:04:13;3.55;;;0.90;;
29352;SDS011;16344;50.364;8.944;2023-04-24T12:07:02;3.20;;;0.68;;
29352;SDS011;16344;50.364;8.944;2023-04-24T12:09:40;2.25;;;0.68;;
29352;SDS011;16344;50.364;8.944;2023-04-24T12:12:13;1.17;;;0.90;;
29352;SDS011;16344;50.364;8.944;2023-04-24T12:14:43;1.10;;;1.00;;
29352;SDS011;16344;50.364;8.944;2023-04-24T12:17:08;1.67;;;0.80;;
29352;SDS011;16344;50.364;8.944;2023-04-24T12:19:34;1.60;;;0.88;;
29352;SDS011;16344;50.364;8.944;2023-04-24T12:22:03;1.17;;;0.65;;
29352;SDS011;16344;50.364;8.944;2023-04-24T12:24:30;1.33;;;0.90;;
29352;SDS011;16344;50.364;8.944;2023-04-24T12:26:56;1.42;;;0.85;;
29352;SDS011;16344;50.364;8.944;2023-04-24T12:29:23;0.85;;;0.82;;
29352;SDS011;16344;50.364;8.944;2023-04-24T12:31:50;1.30;;;0.90;;
29352;SDS011;16344;50.364;8.944;2023-04-24T12:34:19;1.92;;;1.17;;
29352;SDS011;16344;50.364;8.944;2023-04-24T12:36:46;8.90;;;1.23;;
29352;SDS011;16344;50.364;8.944;2023-04-24T12:39:19;1.40;;;1.25;;
29352;SDS011;16344;50.364;8.944;2023-04-24T12:41:54;3.08;;;1.40;;
29352;SDS011;16344;50.364;8.944;2023-04-24T12:44:31;1.77;;;1.15;;
29352;SDS011;16344;50.364;8.944;2023-04-24T12:46:59;3.40;;;1.58;;
29352;SDS011;16344;50.364;8.944;2023-04-24T12:49:25;5.25;;;1.98;;
29352;SDS011;16344;50.364;8.944;2023-04-24T12:51:51;1.80;;;1.10;;
29352;SDS011;16344;50.364;8.944;2023-04-24T12:54:17;3.17;;;0.50;;
29352;SDS011;16344;50.364;8.944;2023-04-24T12:56:43;5.43;;;0.60;;
29352;SDS011;16344;50.364;8.944;2023-04-24T12:59:09;0.57;;;0.40;;
29352;SDS011;16344;50.364;8.944;2023-04-24T13:01:34;1.35;;;0.65;;
29352;SDS011;16344;50.364;8.944;2023-04-24T13:04:00;1.20;;;0.50;;
29352;SDS011;16344;50.364;8.944;2023-04-24T13:06:25;1.27;;;0.60;;
29352;SDS011;16344;50.364;8.944;2023-04-24T13:08:51;2.05;;;0.98;;
29352;SDS011;16344;50.364;8.944;2023-04-24T13:11:17;4.13;;;0.50;;
29352;SDS011;16344;50.364;8.944;2023-04-24T13:13:43;0.47;;;0.47;;
29352;SDS011;16344;50.364;8.944;2023-04-24T13:16:08;0.82;;;0.40;;
29352;SDS011;16344;50.364;8.944;2023-04-24T13:18:34;2.30;;;0.60;;
29352;SDS011;16344;50.364;8.944;2023-04-24T13:20:59;0.30;;;0.30;;
29352;SDS011;16344;50.364;8.944;2023-04-24T13:23:25;1.75;;;0.60;;
29352;SDS011;16344;50.364;8.944;2023-04-24T13:25:51;0.82;;;0.60;;
29352;SDS011;16344;50.364;8.944;2023-04-24T13:28:16;0.70;;;0.70;;
29352;SDS011;16344;50.364;8.944;2023-04-24T13:30:42;2.70;;;1.10;;
29352;SDS011;16344;50.364;8.944;2023-04-24T13:33:08;2.72;;;1.00;;
29352;SDS011;16344;50.364;8.944;2023-04-24T13:35:33;1.10;;;0.88;;
29352;SDS011;16344;50.364;8.944;2023-04-24T13:37:59;1.48;;;0.50;;
29352;SDS011;16344;50.364;8.944;2023-04-24T13:40:26;5.15;;;1.00;;
29352;SDS011;16344;50.364;8.944;2023-04-24T13:42:52;0.70;;;0.50;;
29352;SDS011;16344;50.364;8.944;2023-04-24T13:45:17;1.55;;;0.60;;
29352;SDS011;16344;50.364;8.944;2023-04-24T13:47:43;1.63;;;1.05;;
29352;SDS011;16344;50.364;8.944;2023-04-24T13:50:08;0.90;;;0.90;;
29352;SDS011;16344;50.364;8.944;2023-04-24T13:52:34;4.50;;;2.45;;
29352;SDS011;16344;50.364;8.944;2023-04-24T13:55:00;5.60;;;2.08;;
29352;SDS011;16344;50.364;8.944;2023-04-24T13:57:25;4.65;;;1.98;;
29352;SDS011;16344;50.364;8.944;2023-04-24T13:59:52;7.90;;;3.70;;
29352;SDS011;16344;50.364;8.944;2023-04-24T14:02:18;16.27;;;3.40;;
29352;SDS011;16344;50.364;8.944;2023-04-24T14:04:43;11.20;;;3.17;;
29352;SDS011;16344;50.364;8.944;2023-04-24T14:07:09;10.05;;;3.55;;
29352;SDS011;16344;50.364;8.944;2023-04-24T14:09:34;7.40;;;3.25;;
29352;SDS011;16344;50.364;8.944;2023-04-24T14:12:00;8.43;;;3.42;;
29352;SDS011;16344;50.364;8.944;2023-04-24T14:14:28;6.80;;;3.15;;
29352;SDS011;16344;50.364;8.944;2023-04-24T14:16:54;6.28;;;3.03;;
29352;SDS011;16344;50.364;8.944;2023-04-24T14:19:20;8.85;;;3.70;;
29352;SDS011;16344;50.364;8.944;2023-04-24T14:21:45;7.75;;;3.80;;
29352;SDS011;16344;50.364;8.944;2023-04-24T14:24:11;27.50;;;10.43;;
29352;SDS011;16344;50.364;8.944;2023-04-24T14:26:36;17.17;;;8.85;;
29352;SDS011;16344;50.364;8.944;2023-04-24T14:29:02;11.18;;;4.53;;
29352;SDS011;16344;50.364;8.944;2023-04-24T14:31:28;8.10;;;3.78;;
29352;SDS011;16344;50.364;8.944;2023-04-24T14:33:53;7.28;;;3.60;;
29352;SDS011;16344;50.364;8.944;2023-04-24T14:36:19;7.97;;;3.50;;
29352;SDS011;16344;50.364;8.944;2023-04-24T14:38:44;11.98;;;3.92;;
29352;SDS011;16344;50.364;8.944;2023-04-24T14:41:10;10.32;;;4.10;;
29352;SDS011;16344;50.364;8.944;2023-04-24T14:43:36;9.38;;;3.55;;
29352;SDS011;16344;50.364;8.944;2023-04-24T14:46:02;9.35;;;3.33;;
29352;SDS011;16344;50.364;8.944;2023-04-24T14:48:28;10.25;;;3.28;;
29352;SDS011;16344;50.364;8.944;2023-04-24T14:50:53;10.38;;;3.47;;
29352;SDS011;16344;50.364;8.944;2023-04-24T14:53:19;12.20;;;3.33;;
29352;SDS011;16344;50.364;8.944;2023-04-24T14:55:44;13.23;;;3.47;;
29352;SDS011;16344;50.364;8.944;2023-04-24T14:58:10;6.95;;;2.88;;
29352;SDS011;16344;50.364;8.944;2023-04-24T15:00:36;8.15;;;2.83;;
29352;SDS011;16344;50.364;8.944;2023-04-24T15:03:01;7.82;;;2.95;;